Time;durP1;ratioP1;P1;durP2;ratioP2;P2;SDS_P1;SDS_P2;PMS_P1;PMS_P2;Temp;Humidity;BMP_temperature;BMP_pressure;BME280_temperature;BME280_humidity;BME280_pressure;Samples;Min_cycle;Max_cycle;Signal;HPM_P1;HPM_P2
2021/04/18 04:49:07;;;;;;;4.55;2.50;;;;;;;;;;6293637;22;20002;-81
2021/04/18 04:51:33;;;;;;;8.98;2.33;;;;;;;;;;6293805;22;20016;-81
2021/04/18 04:53:59;;;;;;;3.60;1.77;;;;;;;;;;6294479;22;20003;-81
2021/04/18 04:56:25;;;;;;;6.15;2.65;;;;;;;;;;6278636;22;19996;-81
2021/04/18 04:58:56;;;;;;;3.45;2.03;;;;;;;;;;6258320;23;20019;-81
2021/04/18 05:04:10;;;;;;;3.75;1.92;;;;;;;;;;6293616;22;20019;-81
2021/04/18 05:06:35;;;;;;;4.20;1.80;;;;;;;;;;6264402;22;20022;-81
2021/04/18 05:09:01;;;;;;;7.68;2.58;;;;;;;;;;6269229;22;20006;-80
2021/04/18 05:13:45;;;;;;;4.28;1.83;;;;;;;;;;5111019;28;20349;-83
2021/04/18 05:16:11;;;;;;;5.00;1.70;;;;;;;;;;5113748;28;20060;-82
2021/04/18 05:18:36;;;;;;;3.28;1.88;;;;;;;;;;5089042;28;20096;-83
2021/04/18 05:21:02;;;;;;;7.03;2.50;;;;;;;;;;5114985;28;20035;-83
2021/04/18 05:23:28;;;;;;;3.67;2.03;;;;;;;;;;5088609;28;20016;-83
2021/04/18 05:25:54;;;;;;;4.25;1.73;;;;;;;;;;5086882;28;20024;-82
2021/04/18 05:28:20;;;;;;;5.10;2.10;;;;;;;;;;5079905;28;20088;-83
2021/04/18 05:30:46;;;;;;;5.30;2.38;;;;;;;;;;5084277;28;20397;-83
2021/04/18 05:33:12;;;;;;;4.65;1.98;;;;;;;;;;5093227;28;20081;-83
2021/04/18 05:35:38;;;;;;;4.95;1.90;;;;;;;;;;5088172;28;20101;-83
2021/04/18 05:38:03;;;;;;;4.78;1.95;;;;;;;;;;5090076;28;20009;-83
2021/04/18 05:40:29;;;;;;;5.50;2.10;;;;;;;;;;5107747;28;20051;-83
2021/04/18 05:42:55;;;;;;;4.57;2.45;;;;;;;;;;5076756;28;20093;-83
2021/04/18 05:45:20;;;;;;;5.65;1.77;;;;;;;;;;5088651;28;20074;-83
2021/04/18 05:47:46;;;;;;;6.07;2.65;;;;;;;;;;5106288;28;20058;-83
2021/04/18 05:50:12;;;;;;;6.60;2.47;;;;;;;;;;5107036;28;20023;-82
2021/04/18 05:52:38;;;;;;;6.97;2.58;;;;;;;;;;5085968;28;20059;-83
2021/04/18 05:55:05;;;;;;;4.45;1.80;;;;;;;;;;5096113;28;20085;-82
2021/04/18 05:57:30;;;;;;;5.80;2.13;;;;;;;;;;5092398;28;20027;-83
2021/04/18 05:59:56;;;;;;;7.03;2.08;;;;;;;;;;5106749;28;20099;-82
2021/04/18 06:02:22;;;;;;;5.40;1.90;;;;;;;;;;5106795;28;20040;-82
2021/04/18 06:04:47;;;;;;;6.90;2.95;;;;;;;;;;5110226;28;20115;-82
2021/04/18 06:07:13;;;;;;;5.90;3.10;;;;;;;;;;5092523;28;20039;-82
2021/04/18 06:09:39;;;;;;;7.60;2.90;;;;;;;;;;5109191;28;20058;-82
2021/04/18 06:12:04;;;;;;;7.60;2.97;;;;;;;;;;5088873;28;20119;-82
2021/04/18 06:14:30;;;;;;;9.27;3.55;;;;;;;;;;5088746;28;20030;-83
2021/04/18 06:16:56;;;;;;;8.48;4.10;;;;;;;;;;5105637;28;20028;-82
2021/04/18 06:19:21;;;;;;;10.00;4.68;;;;;;;;;;5086866;28;20024;-83
2021/04/18 06:21:47;;;;;;;7.50;4.15;;;;;;;;;;5090433;28;20035;-83
2021/04/18 06:24:13;;;;;;;10.98;4.40;;;;;;;;;;5095136;28;20044;-83
2021/04/18 06:26:38;;;;;;;9.70;4.72;;;;;;;;;;5088581;28;20036;-82
2021/04/18 06:31:23;;;;;;;7.90;3.88;;;;;;;;;;5119471;27;20348;-82
2021/04/18 06:33:49;;;;;;;8.40;4.45;;;;;;;;;;5119909;28;20023;-82
2021/04/18 06:36:14;;;;;;;8.25;3.67;;;;;;;;;;5132060;28;20047;-82
2021/04/18 06:38:40;;;;;;;7.97;4.18;;;;;;;;;;5133138;27;20387;-82
2021/04/18 06:41:07;;;;;;;7.20;4.03;;;;;;;;;;5120753;28;20099;-83
2021/04/18 06:43:32;;;;;;;9.63;4.18;;;;;;;;;;5107648;28;20050;-83
2021/04/18 06:45:59;;;;;;;7.85;3.33;;;;;;;;;;5115981;28;20028;-83
2021/04/18 06:48:25;;;;;;;8.15;4.07;;;;;;;;;;5112096;28;20020;-83
2021/04/18 06:50:54;;;;;;;7.20;3.92;;;;;;;;;;5114501;28;20023;-83
2021/04/18 06:53:20;;;;;;;15.60;7.55;;;;;;;;;;5109086;27;20020;-82
2021/04/18 06:55:46;;;;;;;14.88;6.47;;;;;;;;;;5118267;28;20030;-83
2021/04/18 06:58:11;;;;;;;8.63;3.72;;;;;;;;;;5116570;27;20374;-83
2021/04/18 07:00:37;;;;;;;9.73;4.28;;;;;;;;;;5119984;28;20024;-83
2021/04/18 07:03:10;;;;;;;8.27;4.88;;;;;;;;;;5108713;27;20079;-84
2021/04/18 07:07:54;;;;;;;7.72;3.45;;;;;;;;;;5083602;27;20353;-83
2021/04/18 07:10:27;;;;;;;7.75;3.47;;;;;;;;;;5081219;28;20024;-83
2021/04/18 07:12:53;;;;;;;8.23;4.20;;;;;;;;;;5079977;28;20045;-84
2021/04/18 07:15:38;;;;;;;7.88;3.85;;;;;;;;;;5077497;28;20483;-84
2021/04/18 07:18:04;;;;;;;10.45;4.82;;;;;;;;;;5079613;28;20033;-84
2021/04/18 07:20:30;;;;;;;7.93;4.47;;;;;;;;;;5081567;28;20529;-84
2021/04/18 07:22:56;;;;;;;7.60;4.30;;;;;;;;;;5075155;28;20052;-84
2021/04/18 07:25:29;;;;;;;8.80;4.75;;;;;;;;;;5070914;28;20017;-84
2021/04/18 07:27:55;;;;;;;10.90;5.07;;;;;;;;;;5074807;28;20080;-84
2021/04/18 07:30:25;;;;;;;9.90;5.57;;;;;;;;;;5081428;28;20496;-84
2021/04/18 07:33:05;;;;;;;9.55;5.32;;;;;;;;;;5075712;28;20485;-84
2021/04/18 07:35:32;;;;;;;11.77;6.45;;;;;;;;;;5075342;28;20024;-84
2021/04/18 07:38:16;;;;;;;11.98;7.68;;;;;;;;;;5079206;28;20028;-83
2021/04/18 07:40:42;;;;;;;12.43;6.03;;;;;;;;;;5065290;28;20017;-84
2021/04/18 07:43:08;;;;;;;9.25;5.07;;;;;;;;;;5076420;28;20028;-84
2021/04/18 07:45:34;;;;;;;10.82;6.28;;;;;;;;;;5083615;28;20024;-84
2021/04/18 07:48:00;;;;;;;9.00;5.35;;;;;;;;;;5074186;28;20028;-84
2021/04/18 07:50:26;;;;;;;9.02;5.40;;;;;;;;;;5080796;28;20066;-84
2021/04/18 07:52:52;;;;;;;7.15;4.53;;;;;;;;;;5072963;28;20027;-84
2021/04/18 07:55:19;;;;;;;7.50;4.45;;;;;;;;;;5071134;28;20030;-82
2021/04/18 07:57:45;;;;;;;9.55;5.47;;;;;;;;;;5076275;28;20032;-84
2021/04/18 08:00:12;;;;;;;13.93;5.50;;;;;;;;;;5079005;28;20369;-84
2021/04/18 08:02:39;;;;;;;10.88;4.40;;;;;;;;;;5081498;28;20035;-84
2021/04/18 08:05:07;;;;;;;8.65;5.57;;;;;;;;;;5069844;28;20028;-83
2021/04/18 08:07:53;;;;;;;12.15;5.65;;;;;;;;;;5081614;28;20069;-83
2021/04/18 08:10:22;;;;;;;13.30;6.00;;;;;;;;;;5079938;28;20052;-84
2021/04/18 08:13:01;;;;;;;9.63;4.88;;;;;;;;;;5075714;28;20017;-83
2021/04/18 08:15:27;;;;;;;16.77;5.85;;;;;;;;;;5073101;28;20031;-83
2021/04/18 08:18:02;;;;;;;16.85;5.68;;;;;;;;;;5064959;28;20029;-84
2021/04/18 08:20:32;;;;;;;9.90;5.85;;;;;;;;;;5055689;28;20020;-83
2021/04/18 08:23:13;;;;;;;12.90;5.22;;;;;;;;;;5057905;28;20029;-83
2021/04/18 08:25:59;;;;;;;12.98;6.47;;;;;;;;;;5063096;28;20016;-82
2021/04/18 08:28:24;;;;;;;12.07;5.30;;;;;;;;;;5052928;28;20438;-83
2021/04/18 08:30:59;;;;;;;13.93;6.57;;;;;;;;;;5057072;28;20021;-83
2021/04/18 08:33:40;;;;;;;14.27;6.55;;;;;;;;;;5058206;28;20021;-83
2021/04/18 08:36:17;;;;;;;11.18;6.00;;;;;;;;;;5062273;28;20033;-83
2021/04/18 08:38:43;;;;;;;11.93;5.68;;;;;;;;;;5056634;28;20086;-83
2021/04/18 08:41:12;;;;;;;13.10;6.45;;;;;;;;;;5060374;28;20023;-83
2021/04/18 08:43:38;;;;;;;11.30;6.20;;;;;;;;;;5058142;28;20021;-82
2021/04/18 08:46:04;;;;;;;12.45;5.85;;;;;;;;;;5059869;28;20037;-81
2021/04/18 08:48:29;;;;;;;10.10;5.50;;;;;;;;;;5056940;28;20108;-81
2021/04/18 08:50:55;;;;;;;10.10;5.75;;;;;;;;;;5057405;28;20709;-81
2021/04/18 08:53:21;;;;;;;9.55;5.82;;;;;;;;;;5048602;28;20546;-81
2021/04/18 08:55:54;;;;;;;9.25;5.68;;;;;;;;;;5055813;28;20021;-81
2021/04/18 08:58:33;;;;;;;9.93;5.90;;;;;;;;;;5046948;28;20120;-82
2021/04/18 09:01:03;;;;;;;10.57;5.95;;;;;;;;;;5055289;28;20047;-81
2021/04/18 09:03:29;;;;;;;10.75;5.82;;;;;;;;;;5049408;28;20021;-82
2021/04/18 09:06:05;;;;;;;13.30;6.13;;;;;;;;;;5057832;28;20120;-81
2021/04/18 09:08:33;;;;;;;12.48;6.70;;;;;;;;;;5063877;28;20841;-81
2021/04/18 09:11:02;;;;;;;12.55;7.38;;;;;;;;;;5059010;28;20460;-82
2021/04/18 09:13:28;;;;;;;13.43;5.68;;;;;;;;;;5064947;28;20020;-82
2021/04/18 09:15:54;;;;;;;9.38;6.10;;;;;;;;;;5065698;28;20028;-81
2021/04/18 09:18:23;;;;;;;13.52;6.32;;;;;;;;;;5055917;28;20017;-82
2021/04/18 09:21:08;;;;;;;8.38;5.43;;;;;;;;;;5064023;28;20013;-82
2021/04/18 09:23:53;;;;;;;10.55;6.15;;;;;;;;;;5063177;28;20021;-81
2021/04/18 09:26:19;;;;;;;14.73;5.32;;;;;;;;;;5058012;28;20464;-82
2021/04/18 09:29:03;;;;;;;9.70;5.78;;;;;;;;;;5060318;28;20043;-81
2021/04/18 09:31:29;;;;;;;13.82;5.68;;;;;;;;;;5057681;28;20381;-81
2021/04/18 09:34:02;;;;;;;7.90;5.50;;;;;;;;;;5056245;28;20025;-82
2021/04/18 09:36:28;;;;;;;12.82;6.93;;;;;;;;;;5056093;28;20053;-81
2021/04/18 09:38:53;;;;;;;11.27;5.93;;;;;;;;;;5057551;28;20021;-81
2021/04/18 09:41:19;;;;;;;10.60;5.78;;;;;;;;;;5062154;28;20020;-82
2021/04/18 09:43:45;;;;;;;12.93;7.70;;;;;;;;;;5054400;28;20032;-81
2021/04/18 09:46:10;;;;;;;10.77;6.20;;;;;;;;;;5052823;28;20469;-81
2021/04/18 09:48:36;;;;;;;11.50;6.00;;;;;;;;;;5056206;28;20017;-81
2021/04/18 09:51:03;;;;;;;12.85;6.07;;;;;;;;;;5064237;28;20032;-82
2021/04/18 09:53:29;;;;;;;12.20;5.88;;;;;;;;;;5059058;28;20514;-81
2021/04/18 09:56:00;;;;;;;8.23;5.43;;;;;;;;;;5059355;28;20025;-81
2021/04/18 09:58:33;;;;;;;11.97;6.10;;;;;;;;;;5057698;28;20047;-82
2021/04/18 10:00:59;;;;;;;10.50;6.45;;;;;;;;;;5057821;28;20059;-82
2021/04/18 10:03:35;;;;;;;12.90;6.57;;;;;;;;;;5063094;28;20078;-81
2021/04/18 10:06:00;;;;;;;9.40;5.65;;;;;;;;;;5056970;28;20504;-81
2021/04/18 10:08:34;;;;;;;11.20;5.63;;;;;;;;;;5056342;28;20028;-80
2021/04/18 10:11:06;;;;;;;11.75;6.70;;;;;;;;;;5053109;28;20504;-81
2021/04/18 10:13:47;;;;;;;11.18;6.00;;;;;;;;;;5057571;28;20056;-81
2021/04/18 10:16:14;;;;;;;11.77;6.88;;;;;;;;;;5057572;28;20021;-81
2021/04/18 10:18:41;;;;;;;8.90;5.65;;;;;;;;;;5065974;28;20047;-81
2021/04/18 10:21:17;;;;;;;10.02;6.10;;;;;;;;;;5062206;28;20028;-81
2021/04/18 10:23:43;;;;;;;9.73;4.82;;;;;;;;;;5056955;28;20079;-83
2021/04/18 10:26:09;;;;;;;15.95;9.55;;;;;;;;;;5055077;28;20017;-81
2021/04/18 10:28:34;;;;;;;14.20;7.97;;;;;;;;;;5064036;28;20080;-82
2021/04/18 10:31:00;;;;;;;10.27;5.63;;;;;;;;;;5062907;28;20033;-82
2021/04/18 10:33:26;;;;;;;9.73;4.75;;;;;;;;;;5054428;28;20043;-82
2021/04/18 10:35:58;;;;;;;9.32;5.22;;;;;;;;;;5061736;28;20030;-82
2021/04/18 10:38:24;;;;;;;9.95;4.97;;;;;;;;;;5061633;28;20499;-82
2021/04/18 10:40:50;;;;;;;11.65;5.90;;;;;;;;;;5061259;28;20028;-82
2021/04/18 10:43:16;;;;;;;9.32;6.15;;;;;;;;;;5056402;28;20532;-81
2021/04/18 10:45:42;;;;;;;11.38;6.38;;;;;;;;;;5057822;28;20485;-81
2021/04/18 10:48:08;;;;;;;11.90;7.20;;;;;;;;;;5058678;28;20048;-82
2021/04/18 10:50:34;;;;;;;8.50;5.85;;;;;;;;;;5053947;28;20031;-82
2021/04/18 10:52:59;;;;;;;9.40;5.80;;;;;;;;;;5063451;28;20104;-81
2021/04/18 10:55:25;;;;;;;10.77;6.03;;;;;;;;;;5064354;28;20103;-82
2021/04/18 10:57:51;;;;;;;11.43;7.18;;;;;;;;;;5056675;28;20045;-80
2021/04/18 11:00:17;;;;;;;12.45;6.43;;;;;;;;;;5062135;28;20101;-82
2021/04/18 11:02:43;;;;;;;12.10;5.75;;;;;;;;;;5066242;28;20013;-81
2021/04/18 11:05:09;;;;;;;13.95;6.80;;;;;;;;;;5063889;28;20384;-81
2021/04/18 11:07:35;;;;;;;9.57;5.60;;;;;;;;;;5043829;28;20032;-81
2021/04/18 11:10:01;;;;;;;9.75;6.10;;;;;;;;;;5066088;28;20072;-81
2021/04/18 11:12:31;;;;;;;10.05;6.07;;;;;;;;;;5061854;28;20013;-82
2021/04/18 11:14:58;;;;;;;12.50;6.97;;;;;;;;;;5063170;28;20404;-80
2021/04/18 11:17:24;;;;;;;10.68;6.82;;;;;;;;;;5066958;28;20016;-80
2021/04/18 11:19:52;;;;;;;12.63;6.53;;;;;;;;;;5059333;28;20449;-82
2021/04/18 11:22:17;;;;;;;10.95;6.13;;;;;;;;;;5055686;28;20078;-85
2021/04/18 11:24:43;;;;;;;11.85;6.35;;;;;;;;;;5058930;28;20456;-82
2021/04/18 11:27:09;;;;;;;12.93;6.30;;;;;;;;;;5057837;28;20085;-82
2021/04/18 11:29:36;;;;;;;11.60;6.20;;;;;;;;;;5060157;28;20017;-82
2021/04/18 11:32:02;;;;;;;10.32;5.97;;;;;;;;;;5057176;28;20025;-83
2021/04/18 11:34:28;;;;;;;13.35;7.55;;;;;;;;;;5061439;28;20066;-83
2021/04/18 11:36:54;;;;;;;11.95;6.63;;;;;;;;;;5056634;28;20141;-83
2021/04/18 11:39:19;;;;;;;14.13;7.85;;;;;;;;;;5055591;28;20013;-83
2021/04/18 11:41:45;;;;;;;12.18;7.50;;;;;;;;;;5062119;28;20381;-83
2021/04/18 11:44:14;;;;;;;15.52;8.63;;;;;;;;;;5053442;28;20032;-83
2021/04/18 11:46:40;;;;;;;12.15;7.35;;;;;;;;;;5054159;28;20048;-83
2021/04/18 11:49:06;;;;;;;17.15;8.02;;;;;;;;;;5047278;28;20061;-83
2021/04/18 11:51:32;;;;;;;18.95;9.27;;;;;;;;;;5044907;28;20024;-84
2021/04/18 11:56:15;;;;;;;14.02;9.82;;;;;;;;;;5110094;27;20772;-84
2021/04/18 11:58:42;;;;;;;14.85;9.25;;;;;;;;;;5101398;28;20039;-84
2021/04/18 12:01:07;;;;;;;13.82;8.73;;;;;;;;;;5106299;28;20019;-83
2021/04/18 12:03:33;;;;;;;19.63;10.02;;;;;;;;;;5104794;28;20030;-84
2021/04/18 12:05:59;;;;;;;14.55;8.82;;;;;;;;;;5107830;28;20579;-84
2021/04/18 12:08:24;;;;;;;16.92;10.05;;;;;;;;;;5107719;27;20020;-84
2021/04/18 12:10:50;;;;;;;15.43;8.50;;;;;;;;;;5108376;28;20024;-85
2021/04/18 12:13:16;;;;;;;15.85;10.43;;;;;;;;;;5098606;27;20024;-85
2021/04/18 12:15:44;;;;;;;18.88;9.48;;;;;;;;;;5098112;28;20027;-85
2021/04/18 12:18:10;;;;;;;17.73;9.10;;;;;;;;;;5096567;28;20028;-85
2021/04/18 12:20:36;;;;;;;19.13;9.25;;;;;;;;;;5097558;28;20050;-85
2021/04/18 12:23:01;;;;;;;16.67;9.55;;;;;;;;;;5096997;28;20012;-85
2021/04/18 12:25:27;;;;;;;16.83;9.27;;;;;;;;;;5097820;28;20031;-84
2021/04/18 12:27:53;;;;;;;17.50;9.85;;;;;;;;;;5100388;28;20379;-85
2021/04/18 12:30:19;;;;;;;16.60;10.68;;;;;;;;;;5097249;28;20028;-84
2021/04/18 12:32:46;;;;;;;14.32;8.20;;;;;;;;;;5101839;28;20024;-84
2021/04/18 12:35:13;;;;;;;14.68;8.32;;;;;;;;;;5094447;28;20029;-84
2021/04/18 12:37:38;;;;;;;17.52;9.02;;;;;;;;;;5098261;28;20050;-84
2021/04/18 12:40:05;;;;;;;16.27;8.95;;;;;;;;;;5110901;28;20016;-84
2021/04/18 12:45:03;;;;;;;16.60;9.07;;;;;;;;;;5091579;27;20379;-85
2021/04/18 12:47:29;;;;;;;16.67;9.75;;;;;;;;;;5088894;28;20036;-85
2021/04/18 12:49:55;;;;;;;16.75;9.18;;;;;;;;;;5092614;28;20393;-84
2021/04/18 12:52:21;;;;;;;13.90;8.48;;;;;;;;;;5083531;28;20404;-85
2021/04/18 12:54:47;;;;;;;14.10;9.50;;;;;;;;;;5077084;28;20021;-84
2021/04/18 12:57:16;;;;;;;12.07;8.00;;;;;;;;;;5086407;28;20111;-85
2021/04/18 12:59:42;;;;;;;21.20;13.43;;;;;;;;;;5085078;28;20438;-84
2021/04/18 13:02:08;;;;;;;15.95;8.40;;;;;;;;;;5085786;28;20028;-84
2021/04/18 13:04:34;;;;;;;12.57;7.72;;;;;;;;;;5086301;28;20054;-83
2021/04/18 13:06:59;;;;;;;13.05;8.57;;;;;;;;;;5082252;28;20449;-85
2021/04/18 13:09:25;;;;;;;17.42;9.10;;;;;;;;;;5082502;28;20431;-85
2021/04/18 13:11:51;;;;;;;14.32;7.97;;;;;;;;;;5082449;28;20388;-86
2021/04/18 13:14:16;;;;;;;14.05;7.50;;;;;;;;;;5086199;28;20395;-86
2021/04/18 13:16:42;;;;;;;13.45;7.93;;;;;;;;;;5087301;28;20074;-85
2021/04/18 13:19:08;;;;;;;11.98;7.47;;;;;;;;;;5086192;28;20111;-86
2021/04/18 13:21:36;;;;;;;12.75;6.75;;;;;;;;;;5084843;28;20047;-87
2021/04/18 13:24:03;;;;;;;12.35;7.18;;;;;;;;;;5088789;28;20028;-85
2021/04/18 13:26:29;;;;;;;17.05;8.15;;;;;;;;;;5084744;28;20020;-85
2021/04/18 13:28:55;;;;;;;14.05;7.45;;;;;;;;;;5085052;28;20047;-85
2021/04/18 13:31:20;;;;;;;11.48;7.43;;;;;;;;;;5084054;28;20111;-85
2021/04/18 13:33:46;;;;;;;13.55;7.15;;;;;;;;;;5085462;28;20024;-85
2021/04/18 13:36:12;;;;;;;11.70;6.05;;;;;;;;;;5080942;28;20048;-85
2021/04/18 13:38:37;;;;;;;10.23;6.50;;;;;;;;;;5081811;28;20671;-85
2021/04/18 13:41:04;;;;;;;11.20;6.40;;;;;;;;;;5077557;28;20119;-85
2021/04/18 13:43:29;;;;;;;12.05;7.28;;;;;;;;;;5085057;28;20028;-86
2021/04/18 13:45:55;;;;;;;11.85;6.90;;;;;;;;;;5080104;28;20111;-85
2021/04/18 13:48:21;;;;;;;11.73;6.97;;;;;;;;;;5086238;28;20103;-86
2021/04/18 13:50:47;;;;;;;14.35;7.68;;;;;;;;;;5082080;28;20028;-86
2021/04/18 13:53:14;;;;;;;9.65;6.40;;;;;;;;;;5083728;28;20554;-86
2021/04/18 13:55:39;;;;;;;10.38;6.65;;;;;;;;;;5080115;28;20031;-85
2021/04/18 13:58:05;;;;;;;12.57;7.80;;;;;;;;;;5077019;28;20476;-86
2021/04/18 14:00:31;;;;;;;10.02;6.35;;;;;;;;;;5068823;28;20024;-86
2021/04/18 14:02:56;;;;;;;11.30;6.20;;;;;;;;;;5071831;28;20032;-85
2021/04/18 14:05:22;;;;;;;10.95;7.13;;;;;;;;;;5071666;28;20108;-85
2021/04/18 14:07:48;;;;;;;12.45;6.90;;;;;;;;;;5069423;28;20023;-85
2021/04/18 14:10:14;;;;;;;11.65;7.95;;;;;;;;;;5066186;28;20559;-85
2021/04/18 14:12:40;;;;;;;13.88;7.95;;;;;;;;;;5064926;28;20048;-85
2021/04/18 14:15:08;;;;;;;13.15;6.95;;;;;;;;;;5071282;28;20036;-85
2021/04/18 14:17:34;;;;;;;10.25;7.18;;;;;;;;;;5076724;28;20056;-86
2021/04/18 14:20:00;;;;;;;12.45;7.80;;;;;;;;;;5069766;28;20085;-85
2021/04/18 14:22:26;;;;;;;9.32;6.85;;;;;;;;;;5068025;28;20029;-85
2021/04/18 14:24:52;;;;;;;10.38;6.07;;;;;;;;;;5071110;28;20040;-85
2021/04/18 14:29:35;;;;;;;10.25;7.15;;;;;;;;;;5102195;27;20356;-85
2021/04/18 14:32:01;;;;;;;10.20;6.35;;;;;;;;;;5085876;28;20371;-85
2021/04/18 14:34:27;;;;;;;9.82;6.45;;;;;;;;;;5090210;28;20024;-85
2021/04/18 14:36:52;;;;;;;9.35;6.38;;;;;;;;;;5089200;28;20020;-85
2021/04/18 14:39:20;;;;;;;11.40;6.10;;;;;;;;;;5091207;28;21380;-86
2021/04/18 14:41:46;;;;;;;12.23;6.30;;;;;;;;;;5080067;28;20035;-85
2021/04/18 14:44:11;;;;;;;9.80;5.25;;;;;;;;;;5079554;28;20028;-84
2021/04/18 14:46:37;;;;;;;12.57;6.82;;;;;;;;;;5096328;28;20031;-85
2021/04/18 14:51:21;;;;;;;12.70;7.78;;;;;;;;;;5052133;28;20424;-84
2021/04/18 14:53:47;;;;;;;11.10;6.70;;;;;;;;;;5036900;28;20026;-85
2021/04/18 14:56:13;;;;;;;10.23;5.85;;;;;;;;;;5035627;28;20083;-85
2021/04/18 15:00:57;;;;;;;10.85;6.30;;;;;;;;;;5059961;28;20366;-85
2021/04/18 15:03:22;;;;;;;8.65;5.93;;;;;;;;;;5057536;28;20025;-85
2021/04/18 15:05:48;;;;;;;12.18;6.43;;;;;;;;;;5041241;28;20027;-84
2021/04/18 15:08:14;;;;;;;8.45;5.97;;;;;;;;;;5038558;28;20450;-85
2021/04/18 15:10:40;;;;;;;9.05;5.85;;;;;;;;;;5046136;28;20025;-85
2021/04/18 15:13:05;;;;;;;11.90;5.68;;;;;;;;;;5041408;28;20043;-85
2021/04/18 15:17:51;;;;;;;10.50;6.18;;;;;;;;;;5107039;27;20381;-84
2021/04/18 15:20:17;;;;;;;9.52;5.82;;;;;;;;;;5108311;28;20040;-84
2021/04/18 15:22:43;;;;;;;9.05;5.35;;;;;;;;;;5092802;28;20024;-85
2021/04/18 15:25:11;;;;;;;9.75;6.15;;;;;;;;;;5106044;28;20004;-85
2021/04/18 15:27:37;;;;;;;13.38;6.18;;;;;;;;;;5085045;28;20479;-85
2021/04/18 15:30:03;;;;;;;14.07;6.35;;;;;;;;;;5082847;28;20067;-84
2021/04/18 15:32:29;;;;;;;8.63;5.43;;;;;;;;;;5088073;28;20485;-84
2021/04/18 15:34:54;;;;;;;11.93;5.65;;;;;;;;;;5099139;28;20044;-85
2021/04/18 15:37:20;;;;;;;12.88;6.47;;;;;;;;;;5084456;28;20085;-85
2021/04/18 15:39:47;;;;;;;11.65;6.50;;;;;;;;;;5084900;28;20036;-85
2021/04/18 15:42:13;;;;;;;12.35;7.53;;;;;;;;;;5079188;28;20068;-84
2021/04/18 15:44:39;;;;;;;11.23;7.30;;;;;;;;;;5083405;28;20020;-84
2021/04/18 15:47:05;;;;;;;9.88;6.43;;;;;;;;;;5085717;28;20024;-86
2021/04/18 15:49:31;;;;;;;10.80;7.35;;;;;;;;;;5093306;28;20023;-85
2021/04/18 15:51:59;;;;;;;12.18;5.97;;;;;;;;;;5102831;28;20454;-85
2021/04/18 15:54:24;;;;;;;8.93;5.88;;;;;;;;;;5090860;28;20091;-86
2021/04/18 15:56:50;;;;;;;10.00;5.60;;;;;;;;;;5090907;28;20039;-84
2021/04/18 15:59:16;;;;;;;11.40;6.68;;;;;;;;;;5113020;28;20076;-83
2021/04/18 16:01:42;;;;;;;10.00;6.10;;;;;;;;;;5108465;28;20024;-83
2021/04/18 16:04:08;;;;;;;11.73;6.05;;;;;;;;;;5113758;28;20013;-83
2021/04/18 16:06:37;;;;;;;13.43;6.30;;;;;;;;;;5107894;28;20103;-83
2021/04/18 16:09:04;;;;;;;17.05;6.65;;;;;;;;;;5107145;28;20070;-83
2021/04/18 16:11:30;;;;;;;14.60;6.78;;;;;;;;;;5111540;28;20019;-83
2021/04/18 16:13:55;;;;;;;10.23;6.35;;;;;;;;;;5100299;28;20027;-83
2021/04/18 16:16:24;;;;;;;10.30;6.07;;;;;;;;;;5109626;28;20096;-83
2021/04/18 16:18:51;;;;;;;9.88;6.45;;;;;;;;;;5104634;28;20078;-83
2021/04/18 16:21:16;;;;;;;8.23;5.15;;;;;;;;;;5102463;28;20008;-83
2021/04/18 16:23:46;;;;;;;16.20;8.35;;;;;;;;;;5108004;28;20054;-83
2021/04/18 16:26:12;;;;;;;24.42;19.60;;;;;;;;;;5094071;28;20020;-83
2021/04/18 16:28:38;;;;;;;12.02;8.98;;;;;;;;;;5097170;28;20059;-84
2021/04/18 16:31:04;;;;;;;9.45;6.20;;;;;;;;;;5088019;28;20039;-83
2021/04/18 16:33:31;;;;;;;10.55;6.88;;;;;;;;;;5085024;28;20041;-83
2021/04/18 16:35:57;;;;;;;9.45;6.32;;;;;;;;;;5089219;28;20029;-83
2021/04/18 16:38:23;;;;;;;9.77;6.68;;;;;;;;;;5088559;28;20017;-83
2021/04/18 16:40:48;;;;;;;9.88;6.20;;;;;;;;;;5078357;28;20092;-83
2021/04/18 16:43:14;;;;;;;8.60;5.57;;;;;;;;;;5090121;28;20099;-82
2021/04/18 16:45:40;;;;;;;10.07;5.97;;;;;;;;;;5081030;28;20108;-84
2021/04/18 16:48:05;;;;;;;9.45;6.10;;;;;;;;;;5081224;28;20107;-85
2021/04/18 16:50:31;;;;;;;10.95;5.72;;;;;;;;;;5073383;28;20100;-86
2021/04/18 16:55:16;;;;;;;9.13;6.18;;;;;;;;;;5055314;28;20379;-85
2021/04/18 16:57:41;;;;;;;10.70;6.75;;;;;;;;;;5031045;28;20076;-85
2021/04/18 17:00:09;;;;;;;9.57;6.18;;;;;;;;;;5025208;28;20097;-85
2021/04/18 17:02:34;;;;;;;10.95;6.28;;;;;;;;;;5026097;28;20030;-85
2021/04/18 17:05:00;;;;;;;9.93;5.88;;;;;;;;;;5026421;28;20022;-84
2021/04/18 17:07:26;;;;;;;7.88;5.40;;;;;;;;;;5049961;28;20036;-85
2021/04/18 17:09:51;;;;;;;9.13;5.63;;;;;;;;;;5023523;28;20022;-85
2021/04/18 17:12:17;;;;;;;10.35;5.30;;;;;;;;;;5024808;28;20117;-85
2021/04/18 17:14:43;;;;;;;8.30;5.05;;;;;;;;;;5019786;28;20048;-85
2021/04/18 17:17:08;;;;;;;10.75;5.68;;;;;;;;;;5017824;28;20108;-84
2021/04/18 17:19:34;;;;;;;10.65;5.82;;;;;;;;;;5027171;28;20026;-84
2021/04/18 17:22:01;;;;;;;9.00;5.47;;;;;;;;;;5027998;28;20393;-85
2021/04/18 17:24:27;;;;;;;8.25;5.70;;;;;;;;;;5026458;28;20386;-84
2021/04/18 17:26:53;;;;;;;8.40;5.07;;;;;;;;;;5032825;28;20021;-84
2021/04/18 17:29:18;;;;;;;9.00;5.15;;;;;;;;;;5030591;28;20025;-83
2021/04/18 17:31:44;;;;;;;9.48;6.15;;;;;;;;;;5030468;28;20089;-83
2021/04/18 17:34:10;;;;;;;8.88;4.78;;;;;;;;;;5034957;28;20009;-82
2021/04/18 17:36:35;;;;;;;7.82;4.85;;;;;;;;;;5030826;28;20121;-82
2021/04/18 17:39:01;;;;;;;12.30;5.75;;;;;;;;;;5034513;28;20028;-82
2021/04/18 17:41:27;;;;;;;9.48;5.47;;;;;;;;;;5034696;28;20018;-83
2021/04/18 17:44:00;;;;;;;8.77;4.68;;;;;;;;;;5031047;28;20021;-83
2021/04/18 17:46:25;;;;;;;9.32;5.57;;;;;;;;;;5031930;28;20568;-82
2021/04/18 17:48:51;;;;;;;10.38;5.40;;;;;;;;;;5029463;28;20053;-83
2021/04/18 17:51:17;;;;;;;8.45;4.90;;;;;;;;;;5030320;28;20068;-83
2021/04/18 17:53:42;;;;;;;8.68;5.32;;;;;;;;;;5025366;28;20121;-83
2021/04/18 17:56:09;;;;;;;7.78;4.63;;;;;;;;;;5034281;28;20541;-82
2021/04/18 17:58:34;;;;;;;8.32;4.63;;;;;;;;;;5032451;28;20026;-82
2021/04/18 18:01:00;;;;;;;7.53;4.50;;;;;;;;;;5035435;28;20032;-83
2021/04/18 18:03:26;;;;;;;6.72;4.60;;;;;;;;;;5034264;28;20021;-82
2021/04/18 18:05:52;;;;;;;10.75;5.15;;;;;;;;;;5025226;28;20018;-82
2021/04/18 18:08:18;;;;;;;17.30;9.32;;;;;;;;;;5013536;28;20058;-85
2021/04/18 18:13:03;;;;;;;10.77;6.55;;;;;;;;;;5133494;27;20367;-85
2021/04/18 18:15:29;;;;;;;11.90;6.30;;;;;;;;;;5120370;28;20080;-85
2021/04/18 18:17:54;;;;;;;18.23;9.73;;;;;;;;;;5122150;28;20027;-85
2021/04/18 18:20:20;;;;;;;13.63;8.02;;;;;;;;;;5123984;28;20123;-83
2021/04/18 18:22:46;;;;;;;12.80;5.80;;;;;;;;;;5108501;28;20050;-83
2021/04/18 18:25:17;;;;;;;8.95;5.65;;;;;;;;;;5107438;28;20083;-84
2021/04/18 18:27:43;;;;;;;9.68;6.28;;;;;;;;;;5106713;28;20024;-84
2021/04/18 18:30:10;;;;;;;8.88;5.07;;;;;;;;;;5111107;28;20058;-84
2021/04/18 18:32:36;;;;;;;8.02;3.78;;;;;;;;;;5101642;28;20032;-83
2021/04/18 18:35:03;;;;;;;5.15;3.47;;;;;;;;;;5100910;28;20084;-84
2021/04/18 18:37:28;;;;;;;15.40;8.98;;;;;;;;;;5095113;28;20025;-83
2021/04/18 18:39:54;;;;;;;13.18;7.38;;;;;;;;;;5109490;28;20691;-83
2021/04/18 18:42:20;;;;;;;12.73;7.50;;;;;;;;;;5110972;28;20023;-83
2021/04/18 18:44:46;;;;;;;10.23;4.97;;;;;;;;;;5108439;28;20027;-83
2021/04/18 18:47:12;;;;;;;12.35;7.47;;;;;;;;;;5116320;28;20015;-85
2021/04/18 18:49:37;;;;;;;12.88;7.50;;;;;;;;;;5111059;28;20035;-83
2021/04/18 18:52:04;;;;;;;7.47;4.78;;;;;;;;;;5114504;28;20048;-83
2021/04/18 18:54:30;;;;;;;7.88;4.18;;;;;;;;;;5108669;28;20012;-83
2021/04/18 18:56:58;;;;;;;7.20;3.60;;;;;;;;;;5104627;28;20027;-83
2021/04/18 18:59:24;;;;;;;6.60;4.05;;;;;;;;;;5114631;28;20016;-83
2021/04/18 19:01:50;;;;;;;6.45;3.40;;;;;;;;;;5107730;28;20020;-83
2021/04/18 19:04:15;;;;;;;8.55;3.58;;;;;;;;;;5116209;28;20496;-83
2021/04/18 19:06:41;;;;;;;6.10;3.17;;;;;;;;;;5107844;28;20051;-83
2021/04/18 19:09:07;;;;;;;5.05;3.42;;;;;;;;;;5090517;28;20024;-82
2021/04/18 19:11:32;;;;;;;10.07;3.30;;;;;;;;;;5101657;28;20032;-83
2021/04/18 19:13:58;;;;;;;7.38;4.05;;;;;;;;;;5100934;28;20025;-83
2021/04/18 19:16:24;;;;;;;4.97;3.33;;;;;;;;;;5113518;28;20442;-83
2021/04/18 19:18:49;;;;;;;5.78;3.53;;;;;;;;;;5102551;28;20017;-82
2021/04/18 19:21:16;;;;;;;5.35;3.95;;;;;;;;;;5106236;28;20030;-83
2021/04/18 19:23:42;;;;;;;5.35;3.45;;;;;;;;;;5092603;28;20035;-83
2021/04/18 19:26:08;;;;;;;5.15;3.58;;;;;;;;;;5089534;28;20741;-84
2021/04/18 19:28:33;;;;;;;9.20;4.05;;;;;;;;;;5083588;28;20055;-80
2021/04/18 19:30:59;;;;;;;6.18;3.35;;;;;;;;;;5088675;28;20613;-81
2021/04/18 19:33:25;;;;;;;7.22;3.45;;;;;;;;;;5089944;28;20026;-80
2021/04/18 19:35:51;;;;;;;5.97;3.28;;;;;;;;;;5092506;28;20532;-81
2021/04/18 19:38:17;;;;;;;5.55;3.15;;;;;;;;;;5097297;28;20019;-81
2021/04/18 19:40:46;;;;;;;6.47;3.92;;;;;;;;;;5084802;28;20388;-81
2021/04/18 19:43:12;;;;;;;11.57;5.13;;;;;;;;;;5086161;28;20073;-81
2021/04/18 19:45:38;;;;;;;7.20;3.78;;;;;;;;;;5081366;28;20028;-81
2021/04/18 19:50:23;;;;;;;7.22;3.30;;;;;;;;;;5103689;28;21155;-82
2021/04/18 19:52:48;;;;;;;6.25;3.03;;;;;;;;;;5083888;28;20465;-82